<?xml version="1.0" encoding="UTF-8" standalone="no" ?>
<gpx xmlns="http://www.topografix.com/GPX/1/1" xmlns:xsi="http://www.w3.org/2001/XMLSchema-instance" xsi:schemaLocation="http://www.topografix.com/GPX/1/1 http://www.topografix.com/GPX/1/1/gpx.xsd" version="1.1" creator="VisuGPX - https://www.visugpx.com">
  <metadata>
    <name>64 - VTT - Tarsacq à Laroin et retour - Voie Verte</name>
    <desc><![CDATA[Reconnaissance Piste cyclable Voie Verte de Tarsacq au rond point de Laroin et retour. 2 déviations suite à piste HS (détruite par le gave). Fin de goudronnage sur Trasacq en cours.]]></desc>
  </metadata>
  <wpt lat="43.30853" lon="-0.44651">
    <ele>156</ele>
    <name><![CDATA[2ème Déviation piste HS]]></name>
    <desc><![CDATA[12-MAI-13 22:58:28]]></desc>
    <cmt><![CDATA[12-MAI-13 22:58:28]]></cmt>
  </wpt>
  <wpt lat="43.33537" lon="-0.49078">
    <ele>144</ele>
    <name><![CDATA[Déviation piste HS]]></name>
    <desc><![CDATA[12-MAI-13 22:41:53]]></desc>
    <cmt><![CDATA[12-MAI-13 22:41:53]]></cmt>
  </wpt>
  <wpt lat="43.35605" lon="-0.522">
    <ele>131</ele>
    <name><![CDATA[DEPART TARSACQ]]></name>
    <desc><![CDATA[12-MAI-13 22:28:14]]></desc>
    <cmt><![CDATA[12-MAI-13 22:28:14]]></cmt>
  </wpt>
  <wpt lat="43.2965" lon="-0.4138">
    <ele>168</ele>
    <name><![CDATA[FIN piste cyclable]]></name>
    <desc><![CDATA[12-MAI-13 23:08:18]]></desc>
    <cmt><![CDATA[12-MAI-13 23:08:18]]></cmt>
  </wpt>
  <wpt lat="43.35542" lon="-0.51666">
    <ele>134</ele>
    <name><![CDATA[FIN zone goudronnée]]></name>
    <desc><![CDATA[12-MAI-13 23:43:57]]></desc>
    <cmt><![CDATA[12-MAI-13 23:43:57]]></cmt>
  </wpt>
  <trk>
    <name><![CDATA[ACTIVE LOG 041]]></name>
    <trkseg>
      <trkpt lat="43.35604" lon="-0.522">
        <ele>129.915283</ele>
        <time>2013-05-13T09:28:01Z</time>
      </trkpt>
      <trkpt lat="43.35604" lon="-0.522">
        <ele>131.3573</ele>
        <time>2013-05-13T09:28:02Z</time>
      </trkpt>
      <trkpt lat="43.35611" lon="-0.52201">
        <ele>131.837891</ele>
        <time>2013-05-13T09:28:37Z</time>
      </trkpt>
      <trkpt lat="43.35641" lon="-0.52173">
        <ele>132.318604</ele>
        <time>2013-05-13T09:28:48Z</time>
      </trkpt>
      <trkpt lat="43.35643" lon="-0.52166">
        <ele>131.3573</ele>
        <time>2013-05-13T09:28:56Z</time>
      </trkpt>
      <trkpt lat="43.35643" lon="-0.5215">
        <ele>131.837891</ele>
        <time>2013-05-13T09:29:08Z</time>
      </trkpt>
      <trkpt lat="43.35648" lon="-0.52107">
        <ele>133.279907</ele>
        <time>2013-05-13T09:29:20Z</time>
      </trkpt>
      <trkpt lat="43.35628" lon="-0.52043">
        <ele>132.799316</ele>
        <time>2013-05-13T09:29:35Z</time>
      </trkpt>
      <trkpt lat="43.356" lon="-0.51982">
        <ele>133.279907</ele>
        <time>2013-05-13T09:29:51Z</time>
      </trkpt>
      <trkpt lat="43.35559" lon="-0.5191">
        <ele>132.799316</ele>
        <time>2013-05-13T09:30:08Z</time>
      </trkpt>
      <trkpt lat="43.35535" lon="-0.51889">
        <ele>132.318604</ele>
        <time>2013-05-13T09:30:15Z</time>
      </trkpt>
      <trkpt lat="43.3549" lon="-0.51832">
        <ele>132.799316</ele>
        <time>2013-05-13T09:30:29Z</time>
      </trkpt>
      <trkpt lat="43.35476" lon="-0.51818">
        <ele>133.760498</ele>
        <time>2013-05-13T09:30:33Z</time>
      </trkpt>
      <trkpt lat="43.35462" lon="-0.5179">
        <ele>133.279907</ele>
        <time>2013-05-13T09:30:39Z</time>
      </trkpt>
      <trkpt lat="43.35446" lon="-0.51771">
        <ele>133.760498</ele>
        <time>2013-05-13T09:30:44Z</time>
      </trkpt>
      <trkpt lat="43.35436" lon="-0.51732">
        <ele>133.279907</ele>
        <time>2013-05-13T09:30:51Z</time>
      </trkpt>
      <trkpt lat="43.35433" lon="-0.51691">
        <ele>136.644653</ele>
        <time>2013-05-13T09:30:59Z</time>
      </trkpt>
      <trkpt lat="43.35426" lon="-0.51682">
        <ele>137.125244</ele>
        <time>2013-05-13T09:31:04Z</time>
      </trkpt>
      <trkpt lat="43.35421" lon="-0.51672">
        <ele>134.721924</ele>
        <time>2013-05-13T09:31:07Z</time>
      </trkpt>
      <trkpt lat="43.35406" lon="-0.51658">
        <ele>134.241211</ele>
        <time>2013-05-13T09:31:11Z</time>
      </trkpt>
      <trkpt lat="43.35367" lon="-0.5163">
        <ele>134.721924</ele>
        <time>2013-05-13T09:31:20Z</time>
      </trkpt>
      <trkpt lat="43.35333" lon="-0.51613">
        <ele>134.241211</ele>
        <time>2013-05-13T09:31:27Z</time>
      </trkpt>
      <trkpt lat="43.35319" lon="-0.51605">
        <ele>134.241211</ele>
        <time>2013-05-13T09:31:30Z</time>
      </trkpt>
      <trkpt lat="43.35307" lon="-0.51592">
        <ele>134.241211</ele>
        <time>2013-05-13T09:31:33Z</time>
      </trkpt>
      <trkpt lat="43.3524" lon="-0.51506">
        <ele>133.760498</ele>
        <time>2013-05-13T09:31:51Z</time>
      </trkpt>
      <trkpt lat="43.35208" lon="-0.51505">
        <ele>133.279907</ele>
        <time>2013-05-13T09:31:58Z</time>
      </trkpt>
      <trkpt lat="43.35189" lon="-0.51512">
        <ele>134.241211</ele>
        <time>2013-05-13T09:32:02Z</time>
      </trkpt>
      <trkpt lat="43.35137" lon="-0.51518">
        <ele>135.202515</ele>
        <time>2013-05-13T09:32:13Z</time>
      </trkpt>
      <trkpt lat="43.35108" lon="-0.515">
        <ele>136.644653</ele>
        <time>2013-05-13T09:32:19Z</time>
      </trkpt>
      <trkpt lat="43.35075" lon="-0.51455">
        <ele>137.125244</ele>
        <time>2013-05-13T09:32:28Z</time>
      </trkpt>
      <trkpt lat="43.35064" lon="-0.51408">
        <ele>137.605835</ele>
        <time>2013-05-13T09:32:35Z</time>
      </trkpt>
      <trkpt lat="43.35033" lon="-0.51406">
        <ele>136.644653</ele>
        <time>2013-05-13T09:32:42Z</time>
      </trkpt>
      <trkpt lat="43.35019" lon="-0.51418">
        <ele>136.644653</ele>
        <time>2013-05-13T09:32:45Z</time>
      </trkpt>
      <trkpt lat="43.34988" lon="-0.51415">
        <ele>136.644653</ele>
        <time>2013-05-13T09:32:51Z</time>
      </trkpt>
      <trkpt lat="43.34978" lon="-0.51408">
        <ele>136.644653</ele>
        <time>2013-05-13T09:32:53Z</time>
      </trkpt>
      <trkpt lat="43.34887" lon="-0.51347">
        <ele>137.125244</ele>
        <time>2013-05-13T09:33:11Z</time>
      </trkpt>
      <trkpt lat="43.34817" lon="-0.51298">
        <ele>137.125244</ele>
        <time>2013-05-13T09:33:25Z</time>
      </trkpt>
      <trkpt lat="43.34749" lon="-0.5127">
        <ele>138.086548</ele>
        <time>2013-05-13T09:33:38Z</time>
      </trkpt>
      <trkpt lat="43.34739" lon="-0.51265">
        <ele>137.605835</ele>
        <time>2013-05-13T09:33:40Z</time>
      </trkpt>
      <trkpt lat="43.34705" lon="-0.51257">
        <ele>137.125244</ele>
        <time>2013-05-13T09:33:46Z</time>
      </trkpt>
      <trkpt lat="43.34697" lon="-0.5123">
        <ele>138.086548</ele>
        <time>2013-05-13T09:33:51Z</time>
      </trkpt>
      <trkpt lat="43.34733" lon="-0.51124">
        <ele>138.086548</ele>
        <time>2013-05-13T09:34:07Z</time>
      </trkpt>
      <trkpt lat="43.34743" lon="-0.51067">
        <ele>137.605835</ele>
        <time>2013-05-13T09:34:15Z</time>
      </trkpt>
      <trkpt lat="43.34751" lon="-0.51048">
        <ele>138.086548</ele>
        <time>2013-05-13T09:34:18Z</time>
      </trkpt>
      <trkpt lat="43.34739" lon="-0.50994">
        <ele>138.567261</ele>
        <time>2013-05-13T09:34:26Z</time>
      </trkpt>
      <trkpt lat="43.34728" lon="-0.50975">
        <ele>137.605835</ele>
        <time>2013-05-13T09:34:29Z</time>
      </trkpt>
      <trkpt lat="43.34723" lon="-0.50961">
        <ele>138.086548</ele>
        <time>2013-05-13T09:34:31Z</time>
      </trkpt>
      <trkpt lat="43.34708" lon="-0.50938">
        <ele>137.125244</ele>
        <time>2013-05-13T09:34:35Z</time>
      </trkpt>
      <trkpt lat="43.34682" lon="-0.50886">
        <ele>138.086548</ele>
        <time>2013-05-13T09:34:43Z</time>
      </trkpt>
      <trkpt lat="43.34671" lon="-0.50868">
        <ele>138.086548</ele>
        <time>2013-05-13T09:34:46Z</time>
      </trkpt>
      <trkpt lat="43.34654" lon="-0.50846">
        <ele>137.605835</ele>
        <time>2013-05-13T09:34:50Z</time>
      </trkpt>
      <trkpt lat="43.34632" lon="-0.50821">
        <ele>138.567261</ele>
        <time>2013-05-13T09:34:55Z</time>
      </trkpt>
      <trkpt lat="43.34603" lon="-0.50762">
        <ele>138.567261</ele>
        <time>2013-05-13T09:35:04Z</time>
      </trkpt>
      <trkpt lat="43.34555" lon="-0.50696">
        <ele>139.528442</ele>
        <time>2013-05-13T09:35:16Z</time>
      </trkpt>
      <trkpt lat="43.34482" lon="-0.50597">
        <ele>139.528442</ele>
        <time>2013-05-13T09:35:34Z</time>
      </trkpt>
      <trkpt lat="43.34429" lon="-0.50549">
        <ele>139.528442</ele>
        <time>2013-05-13T09:35:45Z</time>
      </trkpt>
      <trkpt lat="43.34418" lon="-0.50531">
        <ele>139.528442</ele>
        <time>2013-05-13T09:35:48Z</time>
      </trkpt>
      <trkpt lat="43.34352" lon="-0.50491">
        <ele>140.009155</ele>
        <time>2013-05-13T09:36:01Z</time>
      </trkpt>
      <trkpt lat="43.34347" lon="-0.50489">
        <ele>140.009155</ele>
        <time>2013-05-13T09:36:02Z</time>
      </trkpt>
      <trkpt lat="43.34327" lon="-0.50474">
        <ele>140.009155</ele>
        <time>2013-05-13T09:36:06Z</time>
      </trkpt>
      <trkpt lat="43.34276" lon="-0.50404">
        <ele>140.009155</ele>
        <time>2013-05-13T09:36:19Z</time>
      </trkpt>
      <trkpt lat="43.34211" lon="-0.50353">
        <ele>140.489868</ele>
        <time>2013-05-13T09:36:33Z</time>
      </trkpt>
      <trkpt lat="43.34162" lon="-0.50322">
        <ele>140.489868</ele>
        <time>2013-05-13T09:36:43Z</time>
      </trkpt>
      <trkpt lat="43.34144" lon="-0.50304">
        <ele>140.489868</ele>
        <time>2013-05-13T09:36:47Z</time>
      </trkpt>
      <trkpt lat="43.34121" lon="-0.50271">
        <ele>140.970459</ele>
        <time>2013-05-13T09:36:53Z</time>
      </trkpt>
      <trkpt lat="43.34051" lon="-0.50183">
        <ele>140.489868</ele>
        <time>2013-05-13T09:37:10Z</time>
      </trkpt>
      <trkpt lat="43.34046" lon="-0.50176">
        <ele>140.009155</ele>
        <time>2013-05-13T09:37:11Z</time>
      </trkpt>
      <trkpt lat="43.34009" lon="-0.50136">
        <ele>139.528442</ele>
        <time>2013-05-13T09:37:19Z</time>
      </trkpt>
      <trkpt lat="43.33997" lon="-0.50112">
        <ele>139.528442</ele>
        <time>2013-05-13T09:37:23Z</time>
      </trkpt>
      <trkpt lat="43.33965" lon="-0.49992">
        <ele>140.489868</ele>
        <time>2013-05-13T09:37:40Z</time>
      </trkpt>
      <trkpt lat="43.33957" lon="-0.49964">
        <ele>140.970459</ele>
        <time>2013-05-13T09:37:44Z</time>
      </trkpt>
      <trkpt lat="43.3391" lon="-0.4989">
        <ele>141.931763</ele>
        <time>2013-05-13T09:37:59Z</time>
      </trkpt>
      <trkpt lat="43.33898" lon="-0.49872">
        <ele>141.45105</ele>
        <time>2013-05-13T09:38:03Z</time>
      </trkpt>
      <trkpt lat="43.33883" lon="-0.49831">
        <ele>140.970459</ele>
        <time>2013-05-13T09:38:09Z</time>
      </trkpt>
      <trkpt lat="43.33866" lon="-0.49807">
        <ele>141.45105</ele>
        <time>2013-05-13T09:38:14Z</time>
      </trkpt>
      <trkpt lat="43.33866" lon="-0.49792">
        <ele>141.931763</ele>
        <time>2013-05-13T09:38:18Z</time>
      </trkpt>
      <trkpt lat="43.33874" lon="-0.49783">
        <ele>141.931763</ele>
        <time>2013-05-13T09:38:21Z</time>
      </trkpt>
      <trkpt lat="43.33866" lon="-0.49759">
        <ele>141.931763</ele>
        <time>2013-05-13T09:38:26Z</time>
      </trkpt>
      <trkpt lat="43.33828" lon="-0.49629">
        <ele>141.931763</ele>
        <time>2013-05-13T09:38:45Z</time>
      </trkpt>
      <trkpt lat="43.33826" lon="-0.49594">
        <ele>142.412476</ele>
        <time>2013-05-13T09:38:50Z</time>
      </trkpt>
      <trkpt lat="43.33822" lon="-0.49572">
        <ele>141.931763</ele>
        <time>2013-05-13T09:38:53Z</time>
      </trkpt>
      <trkpt lat="43.33811" lon="-0.49547">
        <ele>141.931763</ele>
        <time>2013-05-13T09:38:57Z</time>
      </trkpt>
      <trkpt lat="43.33795" lon="-0.49506">
        <ele>141.45105</ele>
        <time>2013-05-13T09:39:03Z</time>
      </trkpt>
      <trkpt lat="43.33776" lon="-0.4947">
        <ele>141.931763</ele>
        <time>2013-05-13T09:39:09Z</time>
      </trkpt>
      <trkpt lat="43.33758" lon="-0.49457">
        <ele>142.412476</ele>
        <time>2013-05-13T09:39:13Z</time>
      </trkpt>
      <trkpt lat="43.33721" lon="-0.49425">
        <ele>142.412476</ele>
        <time>2013-05-13T09:39:21Z</time>
      </trkpt>
      <trkpt lat="43.33701" lon="-0.49335">
        <ele>142.412476</ele>
        <time>2013-05-13T09:39:33Z</time>
      </trkpt>
      <trkpt lat="43.33688" lon="-0.49309">
        <ele>142.893066</ele>
        <time>2013-05-13T09:39:37Z</time>
      </trkpt>
      <trkpt lat="43.33679" lon="-0.49298">
        <ele>142.412476</ele>
        <time>2013-05-13T09:39:39Z</time>
      </trkpt>
      <trkpt lat="43.33644" lon="-0.4928">
        <ele>142.893066</ele>
        <time>2013-05-13T09:39:45Z</time>
      </trkpt>
      <trkpt lat="43.33626" lon="-0.49249">
        <ele>142.893066</ele>
        <time>2013-05-13T09:39:50Z</time>
      </trkpt>
      <trkpt lat="43.3362" lon="-0.49204">
        <ele>142.893066</ele>
        <time>2013-05-13T09:39:56Z</time>
      </trkpt>
      <trkpt lat="43.33609" lon="-0.4918">
        <ele>142.412476</ele>
        <time>2013-05-13T09:40:00Z</time>
      </trkpt>
      <trkpt lat="43.33549" lon="-0.49097">
        <ele>142.893066</ele>
        <time>2013-05-13T09:40:16Z</time>
      </trkpt>
      <trkpt lat="43.33537" lon="-0.49077">
        <ele>142.893066</ele>
        <time>2013-05-13T09:40:24Z</time>
      </trkpt>
      <trkpt lat="43.33537" lon="-0.49078">
        <ele>142.893066</ele>
        <time>2013-05-13T09:41:45Z</time>
      </trkpt>
      <trkpt lat="43.33537" lon="-0.49078">
        <ele>142.893066</ele>
        <time>2013-05-13T09:42:22Z</time>
      </trkpt>
      <trkpt lat="43.33517" lon="-0.49043">
        <ele>143.373657</ele>
        <time>2013-05-13T09:42:33Z</time>
      </trkpt>
      <trkpt lat="43.33495" lon="-0.48975">
        <ele>143.373657</ele>
        <time>2013-05-13T09:42:48Z</time>
      </trkpt>
      <trkpt lat="43.33487" lon="-0.48955">
        <ele>142.893066</ele>
        <time>2013-05-13T09:42:52Z</time>
      </trkpt>
      <trkpt lat="43.33464" lon="-0.48875">
        <ele>143.85437</ele>
        <time>2013-05-13T09:43:08Z</time>
      </trkpt>
      <trkpt lat="43.33455" lon="-0.48846">
        <ele>143.373657</ele>
        <time>2013-05-13T09:43:14Z</time>
      </trkpt>
      <trkpt lat="43.33449" lon="-0.48815">
        <ele>143.85437</ele>
        <time>2013-05-13T09:43:20Z</time>
      </trkpt>
      <trkpt lat="43.33445" lon="-0.48812">
        <ele>142.893066</ele>
        <time>2013-05-13T09:43:22Z</time>
      </trkpt>
      <trkpt lat="43.33439" lon="-0.48814">
        <ele>143.85437</ele>
        <time>2013-05-13T09:43:24Z</time>
      </trkpt>
      <trkpt lat="43.3338" lon="-0.4885">
        <ele>145.7771</ele>
        <time>2013-05-13T09:43:40Z</time>
      </trkpt>
      <trkpt lat="43.33357" lon="-0.48845">
        <ele>145.296387</ele>
        <time>2013-05-13T09:43:45Z</time>
      </trkpt>
      <trkpt lat="43.33315" lon="-0.48799">
        <ele>145.296387</ele>
        <time>2013-05-13T09:43:55Z</time>
      </trkpt>
      <trkpt lat="43.33303" lon="-0.48771">
        <ele>144.335205</ele>
        <time>2013-05-13T09:43:59Z</time>
      </trkpt>
      <trkpt lat="43.33285" lon="-0.48732">
        <ele>144.335205</ele>
        <time>2013-05-13T09:44:05Z</time>
      </trkpt>
      <trkpt lat="43.33212" lon="-0.48639">
        <ele>144.815796</ele>
        <time>2013-05-13T09:44:23Z</time>
      </trkpt>
      <trkpt lat="43.33187" lon="-0.48579">
        <ele>144.815796</ele>
        <time>2013-05-13T09:44:32Z</time>
      </trkpt>
      <trkpt lat="43.33188" lon="-0.4855">
        <ele>145.296387</ele>
        <time>2013-05-13T09:44:36Z</time>
      </trkpt>
      <trkpt lat="43.33191" lon="-0.48536">
        <ele>145.296387</ele>
        <time>2013-05-13T09:44:38Z</time>
      </trkpt>
      <trkpt lat="43.33195" lon="-0.48481">
        <ele>144.815796</ele>
        <time>2013-05-13T09:44:45Z</time>
      </trkpt>
      <trkpt lat="43.33183" lon="-0.48448">
        <ele>145.296387</ele>
        <time>2013-05-13T09:44:50Z</time>
      </trkpt>
      <trkpt lat="43.33165" lon="-0.48433">
        <ele>146.257813</ele>
        <time>2013-05-13T09:44:54Z</time>
      </trkpt>
      <trkpt lat="43.33142" lon="-0.48426">
        <ele>146.257813</ele>
        <time>2013-05-13T09:44:59Z</time>
      </trkpt>
      <trkpt lat="43.33118" lon="-0.48411">
        <ele>146.257813</ele>
        <time>2013-05-13T09:45:04Z</time>
      </trkpt>
      <trkpt lat="43.33101" lon="-0.48382">
        <ele>146.738403</ele>
        <time>2013-05-13T09:45:09Z</time>
      </trkpt>
      <trkpt lat="43.33097" lon="-0.48367">
        <ele>146.257813</ele>
        <time>2013-05-13T09:45:11Z</time>
      </trkpt>
      <trkpt lat="43.33084" lon="-0.48344">
        <ele>146.738403</ele>
        <time>2013-05-13T09:45:15Z</time>
      </trkpt>
      <trkpt lat="43.33049" lon="-0.48254">
        <ele>147.218994</ele>
        <time>2013-05-13T09:45:31Z</time>
      </trkpt>
      <trkpt lat="43.33058" lon="-0.48195">
        <ele>147.699707</ele>
        <time>2013-05-13T09:45:40Z</time>
      </trkpt>
      <trkpt lat="43.33039" lon="-0.48087">
        <ele>147.699707</ele>
        <time>2013-05-13T09:45:55Z</time>
      </trkpt>
      <trkpt lat="43.32998" lon="-0.47993">
        <ele>147.699707</ele>
        <time>2013-05-13T09:46:09Z</time>
      </trkpt>
      <trkpt lat="43.32988" lon="-0.47951">
        <ele>147.699707</ele>
        <time>2013-05-13T09:46:15Z</time>
      </trkpt>
      <trkpt lat="43.32947" lon="-0.47861">
        <ele>148.661011</ele>
        <time>2013-05-13T09:46:29Z</time>
      </trkpt>
      <trkpt lat="43.3291" lon="-0.47763">
        <ele>147.699707</ele>
        <time>2013-05-13T09:46:43Z</time>
      </trkpt>
      <trkpt lat="43.32857" lon="-0.47634">
        <ele>148.18042</ele>
        <time>2013-05-13T09:47:02Z</time>
      </trkpt>
      <trkpt lat="43.32832" lon="-0.47566">
        <ele>148.661011</ele>
        <time>2013-05-13T09:47:12Z</time>
      </trkpt>
      <trkpt lat="43.32844" lon="-0.47525">
        <ele>148.661011</ele>
        <time>2013-05-13T09:47:19Z</time>
      </trkpt>
      <trkpt lat="43.32862" lon="-0.47514">
        <ele>148.661011</ele>
        <time>2013-05-13T09:47:23Z</time>
      </trkpt>
      <trkpt lat="43.32864" lon="-0.47484">
        <ele>148.18042</ele>
        <time>2013-05-13T09:47:29Z</time>
      </trkpt>
      <trkpt lat="43.32848" lon="-0.47456">
        <ele>147.699707</ele>
        <time>2013-05-13T09:47:34Z</time>
      </trkpt>
      <trkpt lat="43.32827" lon="-0.47342">
        <ele>147.699707</ele>
        <time>2013-05-13T09:47:49Z</time>
      </trkpt>
      <trkpt lat="43.32815" lon="-0.47244">
        <ele>148.661011</ele>
        <time>2013-05-13T09:48:02Z</time>
      </trkpt>
      <trkpt lat="43.32819" lon="-0.47142">
        <ele>149.141602</ele>
        <time>2013-05-13T09:48:16Z</time>
      </trkpt>
      <trkpt lat="43.32811" lon="-0.47079">
        <ele>149.622314</ele>
        <time>2013-05-13T09:48:27Z</time>
      </trkpt>
      <trkpt lat="43.32814" lon="-0.47037">
        <ele>149.141602</ele>
        <time>2013-05-13T09:48:34Z</time>
      </trkpt>
      <trkpt lat="43.32852" lon="-0.46937">
        <ele>149.622314</ele>
        <time>2013-05-13T09:48:51Z</time>
      </trkpt>
      <trkpt lat="43.32903" lon="-0.46861">
        <ele>148.661011</ele>
        <time>2013-05-13T09:49:06Z</time>
      </trkpt>
      <trkpt lat="43.32945" lon="-0.46824">
        <ele>149.141602</ele>
        <time>2013-05-13T09:49:16Z</time>
      </trkpt>
      <trkpt lat="43.33003" lon="-0.46747">
        <ele>149.622314</ele>
        <time>2013-05-13T09:49:31Z</time>
      </trkpt>
      <trkpt lat="43.33042" lon="-0.46716">
        <ele>149.141602</ele>
        <time>2013-05-13T09:49:39Z</time>
      </trkpt>
      <trkpt lat="43.33062" lon="-0.46688">
        <ele>149.141602</ele>
        <time>2013-05-13T09:49:44Z</time>
      </trkpt>
      <trkpt lat="43.33071" lon="-0.46661">
        <ele>149.141602</ele>
        <time>2013-05-13T09:49:48Z</time>
      </trkpt>
      <trkpt lat="43.33085" lon="-0.46638">
        <ele>149.622314</ele>
        <time>2013-05-13T09:49:52Z</time>
      </trkpt>
      <trkpt lat="43.33102" lon="-0.46623">
        <ele>149.622314</ele>
        <time>2013-05-13T09:49:56Z</time>
      </trkpt>
      <trkpt lat="43.33111" lon="-0.46568">
        <ele>149.141602</ele>
        <time>2013-05-13T09:50:04Z</time>
      </trkpt>
      <trkpt lat="43.3309" lon="-0.46524">
        <ele>149.622314</ele>
        <time>2013-05-13T09:50:10Z</time>
      </trkpt>
      <trkpt lat="43.33052" lon="-0.46465">
        <ele>149.622314</ele>
        <time>2013-05-13T09:50:21Z</time>
      </trkpt>
      <trkpt lat="43.33019" lon="-0.46441">
        <ele>150.103027</ele>
        <time>2013-05-13T09:50:28Z</time>
      </trkpt>
      <trkpt lat="43.33008" lon="-0.46438">
        <ele>149.622314</ele>
        <time>2013-05-13T09:50:30Z</time>
      </trkpt>
      <trkpt lat="43.32997" lon="-0.46434">
        <ele>150.103027</ele>
        <time>2013-05-13T09:50:32Z</time>
      </trkpt>
      <trkpt lat="43.3298" lon="-0.46418">
        <ele>150.103027</ele>
        <time>2013-05-13T09:50:36Z</time>
      </trkpt>
      <trkpt lat="43.32931" lon="-0.46372">
        <ele>150.583618</ele>
        <time>2013-05-13T09:50:47Z</time>
      </trkpt>
      <trkpt lat="43.32844" lon="-0.46259">
        <ele>150.583618</ele>
        <time>2013-05-13T09:51:09Z</time>
      </trkpt>
      <trkpt lat="43.32777" lon="-0.46164">
        <ele>151.064209</ele>
        <time>2013-05-13T09:51:26Z</time>
      </trkpt>
      <trkpt lat="43.32722" lon="-0.46069">
        <ele>150.583618</ele>
        <time>2013-05-13T09:51:41Z</time>
      </trkpt>
      <trkpt lat="43.32646" lon="-0.45968">
        <ele>151.544922</ele>
        <time>2013-05-13T09:52:00Z</time>
      </trkpt>
      <trkpt lat="43.32549" lon="-0.4587">
        <ele>152.025757</ele>
        <time>2013-05-13T09:52:20Z</time>
      </trkpt>
      <trkpt lat="43.32459" lon="-0.45769">
        <ele>152.025757</ele>
        <time>2013-05-13T09:52:40Z</time>
      </trkpt>
      <trkpt lat="43.32455" lon="-0.45763">
        <ele>152.506348</ele>
        <time>2013-05-13T09:52:41Z</time>
      </trkpt>
      <trkpt lat="43.32373" lon="-0.45703">
        <ele>152.986938</ele>
        <time>2013-05-13T09:52:58Z</time>
      </trkpt>
      <trkpt lat="43.32262" lon="-0.45625">
        <ele>153.948364</ele>
        <time>2013-05-13T09:53:20Z</time>
      </trkpt>
      <trkpt lat="43.32133" lon="-0.45545">
        <ele>153.948364</ele>
        <time>2013-05-13T09:53:45Z</time>
      </trkpt>
      <trkpt lat="43.32018" lon="-0.45487">
        <ele>153.948364</ele>
        <time>2013-05-13T09:54:07Z</time>
      </trkpt>
      <trkpt lat="43.31928" lon="-0.45437">
        <ele>154.428955</ele>
        <time>2013-05-13T09:54:24Z</time>
      </trkpt>
      <trkpt lat="43.31905" lon="-0.45415">
        <ele>154.428955</ele>
        <time>2013-05-13T09:54:29Z</time>
      </trkpt>
      <trkpt lat="43.31859" lon="-0.45348">
        <ele>154.428955</ele>
        <time>2013-05-13T09:54:40Z</time>
      </trkpt>
      <trkpt lat="43.31818" lon="-0.45318">
        <ele>153.948364</ele>
        <time>2013-05-13T09:54:48Z</time>
      </trkpt>
      <trkpt lat="43.31805" lon="-0.45278">
        <ele>154.428955</ele>
        <time>2013-05-13T09:54:54Z</time>
      </trkpt>
      <trkpt lat="43.31804" lon="-0.45252">
        <ele>154.428955</ele>
        <time>2013-05-13T09:54:58Z</time>
      </trkpt>
      <trkpt lat="43.31781" lon="-0.4522">
        <ele>154.428955</ele>
        <time>2013-05-13T09:55:04Z</time>
      </trkpt>
      <trkpt lat="43.31679" lon="-0.45183">
        <ele>154.909546</ele>
        <time>2013-05-13T09:55:22Z</time>
      </trkpt>
      <trkpt lat="43.31594" lon="-0.45195">
        <ele>155.390259</ele>
        <time>2013-05-13T09:55:37Z</time>
      </trkpt>
      <trkpt lat="43.31571" lon="-0.45197">
        <ele>154.909546</ele>
        <time>2013-05-13T09:55:41Z</time>
      </trkpt>
      <trkpt lat="43.31552" lon="-0.4519">
        <ele>155.390259</ele>
        <time>2013-05-13T09:55:45Z</time>
      </trkpt>
      <trkpt lat="43.31513" lon="-0.4517">
        <ele>155.870972</ele>
        <time>2013-05-13T09:55:52Z</time>
      </trkpt>
      <trkpt lat="43.31502" lon="-0.45165">
        <ele>155.390259</ele>
        <time>2013-05-13T09:55:54Z</time>
      </trkpt>
      <trkpt lat="43.3148" lon="-0.45162">
        <ele>155.870972</ele>
        <time>2013-05-13T09:55:58Z</time>
      </trkpt>
      <trkpt lat="43.31459" lon="-0.45154">
        <ele>156.351563</ele>
        <time>2013-05-13T09:56:02Z</time>
      </trkpt>
      <trkpt lat="43.31439" lon="-0.45139">
        <ele>155.390259</ele>
        <time>2013-05-13T09:56:06Z</time>
      </trkpt>
      <trkpt lat="43.31368" lon="-0.45119">
        <ele>154.909546</ele>
        <time>2013-05-13T09:56:17Z</time>
      </trkpt>
      <trkpt lat="43.31363" lon="-0.45118">
        <ele>154.909546</ele>
        <time>2013-05-13T09:56:18Z</time>
      </trkpt>
      <trkpt lat="43.31329" lon="-0.451">
        <ele>154.428955</ele>
        <time>2013-05-13T09:56:24Z</time>
      </trkpt>
      <trkpt lat="43.31259" lon="-0.45056">
        <ele>154.909546</ele>
        <time>2013-05-13T09:56:36Z</time>
      </trkpt>
      <trkpt lat="43.31189" lon="-0.45007">
        <ele>154.909546</ele>
        <time>2013-05-13T09:56:49Z</time>
      </trkpt>
      <trkpt lat="43.3106" lon="-0.44908">
        <ele>155.390259</ele>
        <time>2013-05-13T09:57:13Z</time>
      </trkpt>
      <trkpt lat="43.30982" lon="-0.44837">
        <ele>155.390259</ele>
        <time>2013-05-13T09:57:29Z</time>
      </trkpt>
      <trkpt lat="43.30947" lon="-0.44771">
        <ele>155.870972</ele>
        <time>2013-05-13T09:57:39Z</time>
      </trkpt>
      <trkpt lat="43.30929" lon="-0.44751">
        <ele>155.870972</ele>
        <time>2013-05-13T09:57:43Z</time>
      </trkpt>
      <trkpt lat="43.309" lon="-0.44728">
        <ele>155.870972</ele>
        <time>2013-05-13T09:57:49Z</time>
      </trkpt>
      <trkpt lat="43.30865" lon="-0.44664">
        <ele>155.870972</ele>
        <time>2013-05-13T09:58:02Z</time>
      </trkpt>
      <trkpt lat="43.30854" lon="-0.44649">
        <ele>155.870972</ele>
        <time>2013-05-13T09:58:11Z</time>
      </trkpt>
      <trkpt lat="43.30853" lon="-0.44651">
        <ele>155.870972</ele>
        <time>2013-05-13T09:58:27Z</time>
      </trkpt>
      <trkpt lat="43.30853" lon="-0.44651">
        <ele>156.351563</ele>
        <time>2013-05-13T09:58:49Z</time>
      </trkpt>
      <trkpt lat="43.30854" lon="-0.44652">
        <ele>155.870972</ele>
        <time>2013-05-13T09:58:52Z</time>
      </trkpt>
      <trkpt lat="43.30869" lon="-0.44676">
        <ele>156.832153</ele>
        <time>2013-05-13T09:59:00Z</time>
      </trkpt>
      <trkpt lat="43.30877" lon="-0.44694">
        <ele>156.832153</ele>
        <time>2013-05-13T09:59:03Z</time>
      </trkpt>
      <trkpt lat="43.30892" lon="-0.44718">
        <ele>156.351563</ele>
        <time>2013-05-13T09:59:07Z</time>
      </trkpt>
      <trkpt lat="43.30914" lon="-0.44766">
        <ele>159.716187</ele>
        <time>2013-05-13T09:59:15Z</time>
      </trkpt>
      <trkpt lat="43.30916" lon="-0.44773">
        <ele>160.196899</ele>
        <time>2013-05-13T09:59:17Z</time>
      </trkpt>
      <trkpt lat="43.30922" lon="-0.448">
        <ele>163.561523</ele>
        <time>2013-05-13T09:59:30Z</time>
      </trkpt>
      <trkpt lat="43.3092" lon="-0.4481">
        <ele>163.561523</ele>
        <time>2013-05-13T09:59:35Z</time>
      </trkpt>
      <trkpt lat="43.30906" lon="-0.44809">
        <ele>163.561523</ele>
        <time>2013-05-13T09:59:40Z</time>
      </trkpt>
      <trkpt lat="43.30895" lon="-0.44802">
        <ele>164.042114</ele>
        <time>2013-05-13T09:59:43Z</time>
      </trkpt>
      <trkpt lat="43.30876" lon="-0.44799">
        <ele>164.042114</ele>
        <time>2013-05-13T09:59:47Z</time>
      </trkpt>
      <trkpt lat="43.30858" lon="-0.44769">
        <ele>164.042114</ele>
        <time>2013-05-13T09:59:53Z</time>
      </trkpt>
      <trkpt lat="43.30851" lon="-0.44726">
        <ele>163.561523</ele>
        <time>2013-05-13T09:59:58Z</time>
      </trkpt>
      <trkpt lat="43.30781" lon="-0.44548">
        <ele>160.67749</ele>
        <time>2013-05-13T10:00:22Z</time>
      </trkpt>
      <trkpt lat="43.30742" lon="-0.44376">
        <ele>163.080811</ele>
        <time>2013-05-13T10:00:44Z</time>
      </trkpt>
      <trkpt lat="43.30739" lon="-0.4436">
        <ele>161.158203</ele>
        <time>2013-05-13T10:00:46Z</time>
      </trkpt>
      <trkpt lat="43.30685" lon="-0.44209">
        <ele>161.158203</ele>
        <time>2013-05-13T10:01:06Z</time>
      </trkpt>
      <trkpt lat="43.30604" lon="-0.44076">
        <ele>161.638916</ele>
        <time>2013-05-13T10:01:27Z</time>
      </trkpt>
      <trkpt lat="43.30515" lon="-0.43932">
        <ele>164.042114</ele>
        <time>2013-05-13T10:01:51Z</time>
      </trkpt>
      <trkpt lat="43.30483" lon="-0.43876">
        <ele>167.406738</ele>
        <time>2013-05-13T10:02:02Z</time>
      </trkpt>
      <trkpt lat="43.30463" lon="-0.4383">
        <ele>168.848755</ele>
        <time>2013-05-13T10:02:11Z</time>
      </trkpt>
      <trkpt lat="43.30462" lon="-0.43806">
        <ele>168.848755</ele>
        <time>2013-05-13T10:02:15Z</time>
      </trkpt>
      <trkpt lat="43.30463" lon="-0.43792">
        <ele>167.887329</ele>
        <time>2013-05-13T10:02:17Z</time>
      </trkpt>
      <trkpt lat="43.30455" lon="-0.43762">
        <ele>167.406738</ele>
        <time>2013-05-13T10:02:21Z</time>
      </trkpt>
      <trkpt lat="43.30427" lon="-0.43683">
        <ele>164.522705</ele>
        <time>2013-05-13T10:02:31Z</time>
      </trkpt>
      <trkpt lat="43.30415" lon="-0.43647">
        <ele>163.080811</ele>
        <time>2013-05-13T10:02:35Z</time>
      </trkpt>
      <trkpt lat="43.3039" lon="-0.43576">
        <ele>162.119507</ele>
        <time>2013-05-13T10:02:44Z</time>
      </trkpt>
      <trkpt lat="43.30371" lon="-0.43537">
        <ele>161.638916</ele>
        <time>2013-05-13T10:02:50Z</time>
      </trkpt>
      <trkpt lat="43.30381" lon="-0.43479">
        <ele>160.67749</ele>
        <time>2013-05-13T10:02:57Z</time>
      </trkpt>
      <trkpt lat="43.30376" lon="-0.43454">
        <ele>160.67749</ele>
        <time>2013-05-13T10:03:00Z</time>
      </trkpt>
      <trkpt lat="43.3033" lon="-0.43352">
        <ele>161.158203</ele>
        <time>2013-05-13T10:03:15Z</time>
      </trkpt>
      <trkpt lat="43.30278" lon="-0.43249">
        <ele>161.638916</ele>
        <time>2013-05-13T10:03:30Z</time>
      </trkpt>
      <trkpt lat="43.30258" lon="-0.43153">
        <ele>161.158203</ele>
        <time>2013-05-13T10:03:42Z</time>
      </trkpt>
      <trkpt lat="43.30231" lon="-0.43045">
        <ele>161.158203</ele>
        <time>2013-05-13T10:03:55Z</time>
      </trkpt>
      <trkpt lat="43.30199" lon="-0.42941">
        <ele>162.119507</ele>
        <time>2013-05-13T10:04:09Z</time>
      </trkpt>
      <trkpt lat="43.30173" lon="-0.42837">
        <ele>162.119507</ele>
        <time>2013-05-13T10:04:23Z</time>
      </trkpt>
      <trkpt lat="43.30172" lon="-0.42828">
        <ele>162.119507</ele>
        <time>2013-05-13T10:04:24Z</time>
      </trkpt>
      <trkpt lat="43.30162" lon="-0.42798">
        <ele>162.119507</ele>
        <time>2013-05-13T10:04:28Z</time>
      </trkpt>
      <trkpt lat="43.30135" lon="-0.42682">
        <ele>162.600098</ele>
        <time>2013-05-13T10:04:43Z</time>
      </trkpt>
      <trkpt lat="43.30107" lon="-0.42593">
        <ele>163.080811</ele>
        <time>2013-05-13T10:04:55Z</time>
      </trkpt>
      <trkpt lat="43.30063" lon="-0.42487">
        <ele>164.042114</ele>
        <time>2013-05-13T10:05:10Z</time>
      </trkpt>
      <trkpt lat="43.30035" lon="-0.42406">
        <ele>164.042114</ele>
        <time>2013-05-13T10:05:21Z</time>
      </trkpt>
      <trkpt lat="43.30023" lon="-0.42377">
        <ele>163.561523</ele>
        <time>2013-05-13T10:05:25Z</time>
      </trkpt>
      <trkpt lat="43.30012" lon="-0.42322">
        <ele>163.080811</ele>
        <time>2013-05-13T10:05:31Z</time>
      </trkpt>
      <trkpt lat="43.29999" lon="-0.42283">
        <ele>163.561523</ele>
        <time>2013-05-13T10:05:36Z</time>
      </trkpt>
      <trkpt lat="43.29993" lon="-0.42234">
        <ele>162.600098</ele>
        <time>2013-05-13T10:05:42Z</time>
      </trkpt>
      <trkpt lat="43.29994" lon="-0.42209">
        <ele>163.080811</ele>
        <time>2013-05-13T10:05:45Z</time>
      </trkpt>
      <trkpt lat="43.29975" lon="-0.42092">
        <ele>163.561523</ele>
        <time>2013-05-13T10:06:00Z</time>
      </trkpt>
      <trkpt lat="43.29957" lon="-0.42063">
        <ele>164.522705</ele>
        <time>2013-05-13T10:06:05Z</time>
      </trkpt>
      <trkpt lat="43.29915" lon="-0.41983">
        <ele>165.484131</ele>
        <time>2013-05-13T10:06:18Z</time>
      </trkpt>
      <trkpt lat="43.29871" lon="-0.41927">
        <ele>165.484131</ele>
        <time>2013-05-13T10:06:29Z</time>
      </trkpt>
      <trkpt lat="43.29858" lon="-0.41896">
        <ele>166.445313</ele>
        <time>2013-05-13T10:06:34Z</time>
      </trkpt>
      <trkpt lat="43.29848" lon="-0.41855">
        <ele>166.926025</ele>
        <time>2013-05-13T10:06:40Z</time>
      </trkpt>
      <trkpt lat="43.29835" lon="-0.41825">
        <ele>166.926025</ele>
        <time>2013-05-13T10:06:45Z</time>
      </trkpt>
      <trkpt lat="43.29826" lon="-0.41816">
        <ele>167.406738</ele>
        <time>2013-05-13T10:06:47Z</time>
      </trkpt>
      <trkpt lat="43.29814" lon="-0.41764">
        <ele>167.406738</ele>
        <time>2013-05-13T10:06:55Z</time>
      </trkpt>
      <trkpt lat="43.29795" lon="-0.41658">
        <ele>167.887329</ele>
        <time>2013-05-13T10:07:09Z</time>
      </trkpt>
      <trkpt lat="43.29794" lon="-0.41643">
        <ele>168.368042</ele>
        <time>2013-05-13T10:07:11Z</time>
      </trkpt>
      <trkpt lat="43.29781" lon="-0.41601">
        <ele>168.368042</ele>
        <time>2013-05-13T10:07:17Z</time>
      </trkpt>
      <trkpt lat="43.29774" lon="-0.41586">
        <ele>167.887329</ele>
        <time>2013-05-13T10:07:19Z</time>
      </trkpt>
      <trkpt lat="43.2977" lon="-0.41561">
        <ele>167.406738</ele>
        <time>2013-05-13T10:07:22Z</time>
      </trkpt>
      <trkpt lat="43.29738" lon="-0.41502">
        <ele>167.406738</ele>
        <time>2013-05-13T10:07:31Z</time>
      </trkpt>
      <trkpt lat="43.29713" lon="-0.41466">
        <ele>167.406738</ele>
        <time>2013-05-13T10:07:37Z</time>
      </trkpt>
      <trkpt lat="43.29704" lon="-0.41439">
        <ele>166.926025</ele>
        <time>2013-05-13T10:07:41Z</time>
      </trkpt>
      <trkpt lat="43.29699" lon="-0.41405">
        <ele>166.445313</ele>
        <time>2013-05-13T10:07:46Z</time>
      </trkpt>
      <trkpt lat="43.29683" lon="-0.41378">
        <ele>166.926025</ele>
        <time>2013-05-13T10:07:52Z</time>
      </trkpt>
      <trkpt lat="43.2965" lon="-0.4138">
        <ele>166.926025</ele>
        <time>2013-05-13T10:08:03Z</time>
      </trkpt>
      <trkpt lat="43.29651" lon="-0.4138">
        <ele>167.406738</ele>
        <time>2013-05-13T10:08:24Z</time>
      </trkpt>
      <trkpt lat="43.29651" lon="-0.41382">
        <ele>167.406738</ele>
        <time>2013-05-13T10:08:45Z</time>
      </trkpt>
      <trkpt lat="43.29663" lon="-0.41371">
        <ele>166.926025</ele>
        <time>2013-05-13T10:08:51Z</time>
      </trkpt>
      <trkpt lat="43.29675" lon="-0.41374">
        <ele>167.887329</ele>
        <time>2013-05-13T10:08:54Z</time>
      </trkpt>
      <trkpt lat="43.29702" lon="-0.41419">
        <ele>166.445313</ele>
        <time>2013-05-13T10:09:03Z</time>
      </trkpt>
      <trkpt lat="43.29704" lon="-0.41434">
        <ele>166.926025</ele>
        <time>2013-05-13T10:09:05Z</time>
      </trkpt>
      <trkpt lat="43.29711" lon="-0.41459">
        <ele>166.926025</ele>
        <time>2013-05-13T10:09:09Z</time>
      </trkpt>
      <trkpt lat="43.29757" lon="-0.41527">
        <ele>166.926025</ele>
        <time>2013-05-13T10:09:22Z</time>
      </trkpt>
      <trkpt lat="43.29766" lon="-0.41544">
        <ele>166.445313</ele>
        <time>2013-05-13T10:09:25Z</time>
      </trkpt>
      <trkpt lat="43.29771" lon="-0.41571">
        <ele>166.926025</ele>
        <time>2013-05-13T10:09:29Z</time>
      </trkpt>
      <trkpt lat="43.29789" lon="-0.41619">
        <ele>168.368042</ele>
        <time>2013-05-13T10:09:37Z</time>
      </trkpt>
      <trkpt lat="43.29796" lon="-0.41647">
        <ele>167.887329</ele>
        <time>2013-05-13T10:09:41Z</time>
      </trkpt>
      <trkpt lat="43.29798" lon="-0.41694">
        <ele>167.887329</ele>
        <time>2013-05-13T10:09:47Z</time>
      </trkpt>
      <trkpt lat="43.29813" lon="-0.41752">
        <ele>167.406738</ele>
        <time>2013-05-13T10:09:55Z</time>
      </trkpt>
      <trkpt lat="43.29815" lon="-0.41784">
        <ele>167.406738</ele>
        <time>2013-05-13T10:09:59Z</time>
      </trkpt>
      <trkpt lat="43.29838" lon="-0.41827">
        <ele>166.926025</ele>
        <time>2013-05-13T10:10:06Z</time>
      </trkpt>
      <trkpt lat="43.29844" lon="-0.4184">
        <ele>166.926025</ele>
        <time>2013-05-13T10:10:08Z</time>
      </trkpt>
      <trkpt lat="43.2985" lon="-0.41854">
        <ele>166.926025</ele>
        <time>2013-05-13T10:10:10Z</time>
      </trkpt>
      <trkpt lat="43.29859" lon="-0.41895">
        <ele>166.445313</ele>
        <time>2013-05-13T10:10:15Z</time>
      </trkpt>
      <trkpt lat="43.29875" lon="-0.4193">
        <ele>165.484131</ele>
        <time>2013-05-13T10:10:20Z</time>
      </trkpt>
      <trkpt lat="43.2991" lon="-0.41975">
        <ele>165.003418</ele>
        <time>2013-05-13T10:10:27Z</time>
      </trkpt>
      <trkpt lat="43.29925" lon="-0.42003">
        <ele>164.522705</ele>
        <time>2013-05-13T10:10:31Z</time>
      </trkpt>
      <trkpt lat="43.29956" lon="-0.42065">
        <ele>164.042114</ele>
        <time>2013-05-13T10:10:39Z</time>
      </trkpt>
      <trkpt lat="43.29966" lon="-0.42077">
        <ele>164.042114</ele>
        <time>2013-05-13T10:10:41Z</time>
      </trkpt>
      <trkpt lat="43.29979" lon="-0.42106">
        <ele>163.561523</ele>
        <time>2013-05-13T10:10:45Z</time>
      </trkpt>
      <trkpt lat="43.29993" lon="-0.42166">
        <ele>163.080811</ele>
        <time>2013-05-13T10:10:52Z</time>
      </trkpt>
      <trkpt lat="43.29994" lon="-0.42254">
        <ele>163.080811</ele>
        <time>2013-05-13T10:11:02Z</time>
      </trkpt>
      <trkpt lat="43.30001" lon="-0.42288">
        <ele>164.042114</ele>
        <time>2013-05-13T10:11:06Z</time>
      </trkpt>
      <trkpt lat="43.30014" lon="-0.42335">
        <ele>163.080811</ele>
        <time>2013-05-13T10:11:12Z</time>
      </trkpt>
      <trkpt lat="43.30016" lon="-0.42351">
        <ele>163.080811</ele>
        <time>2013-05-13T10:11:14Z</time>
      </trkpt>
      <trkpt lat="43.30023" lon="-0.42381">
        <ele>163.080811</ele>
        <time>2013-05-13T10:11:18Z</time>
      </trkpt>
      <trkpt lat="43.30062" lon="-0.42489">
        <ele>164.042114</ele>
        <time>2013-05-13T10:11:33Z</time>
      </trkpt>
      <trkpt lat="43.30107" lon="-0.42589">
        <ele>163.080811</ele>
        <time>2013-05-13T10:11:47Z</time>
      </trkpt>
      <trkpt lat="43.30146" lon="-0.42729">
        <ele>161.638916</ele>
        <time>2013-05-13T10:12:04Z</time>
      </trkpt>
      <trkpt lat="43.3016" lon="-0.42789">
        <ele>161.638916</ele>
        <time>2013-05-13T10:12:11Z</time>
      </trkpt>
      <trkpt lat="43.30167" lon="-0.42813">
        <ele>161.638916</ele>
        <time>2013-05-13T10:12:14Z</time>
      </trkpt>
      <trkpt lat="43.30192" lon="-0.42917">
        <ele>161.638916</ele>
        <time>2013-05-13T10:12:27Z</time>
      </trkpt>
      <trkpt lat="43.30217" lon="-0.42987">
        <ele>161.638916</ele>
        <time>2013-05-13T10:12:36Z</time>
      </trkpt>
      <trkpt lat="43.30245" lon="-0.43111">
        <ele>161.158203</ele>
        <time>2013-05-13T10:12:51Z</time>
      </trkpt>
      <trkpt lat="43.30267" lon="-0.43217">
        <ele>161.158203</ele>
        <time>2013-05-13T10:13:04Z</time>
      </trkpt>
      <trkpt lat="43.30276" lon="-0.43247">
        <ele>160.67749</ele>
        <time>2013-05-13T10:13:08Z</time>
      </trkpt>
      <trkpt lat="43.30341" lon="-0.43376">
        <ele>160.67749</ele>
        <time>2013-05-13T10:13:26Z</time>
      </trkpt>
      <trkpt lat="43.3037" lon="-0.43442">
        <ele>160.196899</ele>
        <time>2013-05-13T10:13:35Z</time>
      </trkpt>
      <trkpt lat="43.30379" lon="-0.43464">
        <ele>160.196899</ele>
        <time>2013-05-13T10:13:38Z</time>
      </trkpt>
      <trkpt lat="43.30368" lon="-0.43516">
        <ele>160.196899</ele>
        <time>2013-05-13T10:13:45Z</time>
      </trkpt>
      <trkpt lat="43.30372" lon="-0.43544">
        <ele>161.158203</ele>
        <time>2013-05-13T10:13:49Z</time>
      </trkpt>
      <trkpt lat="43.30413" lon="-0.43643">
        <ele>161.638916</ele>
        <time>2013-05-13T10:14:06Z</time>
      </trkpt>
      <trkpt lat="43.30415" lon="-0.43649">
        <ele>161.158203</ele>
        <time>2013-05-13T10:14:07Z</time>
      </trkpt>
      <trkpt lat="43.30434" lon="-0.43675">
        <ele>161.638916</ele>
        <time>2013-05-13T10:14:13Z</time>
      </trkpt>
      <trkpt lat="43.30459" lon="-0.43741">
        <ele>161.158203</ele>
        <time>2013-05-13T10:14:23Z</time>
      </trkpt>
      <trkpt lat="43.3047" lon="-0.43758">
        <ele>161.158203</ele>
        <time>2013-05-13T10:14:26Z</time>
      </trkpt>
      <trkpt lat="43.30485" lon="-0.43801">
        <ele>161.158203</ele>
        <time>2013-05-13T10:14:32Z</time>
      </trkpt>
      <trkpt lat="43.30488" lon="-0.43824">
        <ele>160.67749</ele>
        <time>2013-05-13T10:14:35Z</time>
      </trkpt>
      <trkpt lat="43.30525" lon="-0.43905">
        <ele>160.67749</ele>
        <time>2013-05-13T10:14:47Z</time>
      </trkpt>
      <trkpt lat="43.3054" lon="-0.43941">
        <ele>158.754761</ele>
        <time>2013-05-13T10:14:53Z</time>
      </trkpt>
      <trkpt lat="43.30536" lon="-0.43955">
        <ele>159.235474</ele>
        <time>2013-05-13T10:14:55Z</time>
      </trkpt>
      <trkpt lat="43.30529" lon="-0.43982">
        <ele>160.196899</ele>
        <time>2013-05-13T10:14:58Z</time>
      </trkpt>
      <trkpt lat="43.30525" lon="-0.44003">
        <ele>161.158203</ele>
        <time>2013-05-13T10:15:03Z</time>
      </trkpt>
      <trkpt lat="43.30537" lon="-0.44066">
        <ele>161.638916</ele>
        <time>2013-05-13T10:15:14Z</time>
      </trkpt>
      <trkpt lat="43.30547" lon="-0.44112">
        <ele>161.638916</ele>
        <time>2013-05-13T10:15:22Z</time>
      </trkpt>
      <trkpt lat="43.30552" lon="-0.44113">
        <ele>161.158203</ele>
        <time>2013-05-13T10:15:23Z</time>
      </trkpt>
      <trkpt lat="43.30611" lon="-0.44124">
        <ele>162.119507</ele>
        <time>2013-05-13T10:15:34Z</time>
      </trkpt>
      <trkpt lat="43.30641" lon="-0.44158">
        <ele>161.638916</ele>
        <time>2013-05-13T10:15:41Z</time>
      </trkpt>
      <trkpt lat="43.30668" lon="-0.44211">
        <ele>161.638916</ele>
        <time>2013-05-13T10:15:49Z</time>
      </trkpt>
      <trkpt lat="43.30677" lon="-0.44232">
        <ele>162.119507</ele>
        <time>2013-05-13T10:15:52Z</time>
      </trkpt>
      <trkpt lat="43.30692" lon="-0.44258">
        <ele>161.638916</ele>
        <time>2013-05-13T10:15:56Z</time>
      </trkpt>
      <trkpt lat="43.30723" lon="-0.44321">
        <ele>161.158203</ele>
        <time>2013-05-13T10:16:05Z</time>
      </trkpt>
      <trkpt lat="43.3073" lon="-0.44372">
        <ele>161.158203</ele>
        <time>2013-05-13T10:16:12Z</time>
      </trkpt>
      <trkpt lat="43.30742" lon="-0.44405">
        <ele>159.716187</ele>
        <time>2013-05-13T10:16:19Z</time>
      </trkpt>
      <trkpt lat="43.30763" lon="-0.44519">
        <ele>159.716187</ele>
        <time>2013-05-13T10:16:40Z</time>
      </trkpt>
      <trkpt lat="43.30751" lon="-0.44539">
        <ele>159.716187</ele>
        <time>2013-05-13T10:16:47Z</time>
      </trkpt>
      <trkpt lat="43.30764" lon="-0.44568">
        <ele>159.716187</ele>
        <time>2013-05-13T10:16:57Z</time>
      </trkpt>
      <trkpt lat="43.3077" lon="-0.44593">
        <ele>159.235474</ele>
        <time>2013-05-13T10:17:04Z</time>
      </trkpt>
      <trkpt lat="43.30768" lon="-0.44586">
        <ele>159.235474</ele>
        <time>2013-05-13T10:17:12Z</time>
      </trkpt>
      <trkpt lat="43.3077" lon="-0.44607">
        <ele>158.27417</ele>
        <time>2013-05-13T10:17:20Z</time>
      </trkpt>
      <trkpt lat="43.30777" lon="-0.44612">
        <ele>157.793579</ele>
        <time>2013-05-13T10:17:22Z</time>
      </trkpt>
      <trkpt lat="43.30794" lon="-0.44623">
        <ele>155.870972</ele>
        <time>2013-05-13T10:17:33Z</time>
      </trkpt>
      <trkpt lat="43.30798" lon="-0.44625">
        <ele>155.870972</ele>
        <time>2013-05-13T10:17:50Z</time>
      </trkpt>
      <trkpt lat="43.30793" lon="-0.44623">
        <ele>155.870972</ele>
        <time>2013-05-13T10:18:11Z</time>
      </trkpt>
      <trkpt lat="43.30787" lon="-0.44616">
        <ele>157.312866</ele>
        <time>2013-05-13T10:18:23Z</time>
      </trkpt>
      <trkpt lat="43.30746" lon="-0.44606">
        <ele>156.832153</ele>
        <time>2013-05-13T10:18:37Z</time>
      </trkpt>
      <trkpt lat="43.30727" lon="-0.44591">
        <ele>157.312866</ele>
        <time>2013-05-13T10:18:45Z</time>
      </trkpt>
      <trkpt lat="43.30724" lon="-0.446">
        <ele>158.754761</ele>
        <time>2013-05-13T10:18:50Z</time>
      </trkpt>
      <trkpt lat="43.30722" lon="-0.44613">
        <ele>158.27417</ele>
        <time>2013-05-13T10:18:55Z</time>
      </trkpt>
      <trkpt lat="43.30753" lon="-0.44628">
        <ele>157.312866</ele>
        <time>2013-05-13T10:19:05Z</time>
      </trkpt>
      <trkpt lat="43.30801" lon="-0.4464">
        <ele>158.27417</ele>
        <time>2013-05-13T10:19:19Z</time>
      </trkpt>
      <trkpt lat="43.30822" lon="-0.44668">
        <ele>160.196899</ele>
        <time>2013-05-13T10:19:33Z</time>
      </trkpt>
      <trkpt lat="43.30829" lon="-0.44683">
        <ele>160.67749</ele>
        <time>2013-05-13T10:19:38Z</time>
      </trkpt>
      <trkpt lat="43.30849" lon="-0.44698">
        <ele>160.67749</ele>
        <time>2013-05-13T10:19:48Z</time>
      </trkpt>
      <trkpt lat="43.30856" lon="-0.44707">
        <ele>160.67749</ele>
        <time>2013-05-13T10:19:51Z</time>
      </trkpt>
      <trkpt lat="43.30892" lon="-0.44764">
        <ele>162.119507</ele>
        <time>2013-05-13T10:20:05Z</time>
      </trkpt>
      <trkpt lat="43.30917" lon="-0.44803">
        <ele>162.600098</ele>
        <time>2013-05-13T10:20:15Z</time>
      </trkpt>
      <trkpt lat="43.30919" lon="-0.44781">
        <ele>162.119507</ele>
        <time>2013-05-13T10:20:21Z</time>
      </trkpt>
      <trkpt lat="43.30906" lon="-0.44752">
        <ele>158.754761</ele>
        <time>2013-05-13T10:20:25Z</time>
      </trkpt>
      <trkpt lat="43.30904" lon="-0.44739">
        <ele>157.312866</ele>
        <time>2013-05-13T10:20:28Z</time>
      </trkpt>
      <trkpt lat="43.30914" lon="-0.44742">
        <ele>156.832153</ele>
        <time>2013-05-13T10:20:31Z</time>
      </trkpt>
      <trkpt lat="43.30941" lon="-0.44759">
        <ele>156.832153</ele>
        <time>2013-05-13T10:20:37Z</time>
      </trkpt>
      <trkpt lat="43.30955" lon="-0.4478">
        <ele>156.832153</ele>
        <time>2013-05-13T10:20:41Z</time>
      </trkpt>
      <trkpt lat="43.31015" lon="-0.44869">
        <ele>156.832153</ele>
        <time>2013-05-13T10:20:57Z</time>
      </trkpt>
      <trkpt lat="43.31096" lon="-0.44929">
        <ele>156.351563</ele>
        <time>2013-05-13T10:21:13Z</time>
      </trkpt>
      <trkpt lat="43.31192" lon="-0.45007">
        <ele>156.832153</ele>
        <time>2013-05-13T10:21:33Z</time>
      </trkpt>
      <trkpt lat="43.31256" lon="-0.45052">
        <ele>156.832153</ele>
        <time>2013-05-13T10:21:46Z</time>
      </trkpt>
      <trkpt lat="43.31327" lon="-0.45098">
        <ele>156.832153</ele>
        <time>2013-05-13T10:21:59Z</time>
      </trkpt>
      <trkpt lat="43.31366" lon="-0.45116">
        <ele>155.870972</ele>
        <time>2013-05-13T10:22:06Z</time>
      </trkpt>
      <trkpt lat="43.31422" lon="-0.45129">
        <ele>155.870972</ele>
        <time>2013-05-13T10:22:15Z</time>
      </trkpt>
      <trkpt lat="43.31472" lon="-0.45158">
        <ele>157.793579</ele>
        <time>2013-05-13T10:22:25Z</time>
      </trkpt>
      <trkpt lat="43.31493" lon="-0.45161">
        <ele>157.793579</ele>
        <time>2013-05-13T10:22:29Z</time>
      </trkpt>
      <trkpt lat="43.31539" lon="-0.4518">
        <ele>157.793579</ele>
        <time>2013-05-13T10:22:37Z</time>
      </trkpt>
      <trkpt lat="43.31553" lon="-0.45191">
        <ele>157.793579</ele>
        <time>2013-05-13T10:22:40Z</time>
      </trkpt>
      <trkpt lat="43.31579" lon="-0.45197">
        <ele>156.351563</ele>
        <time>2013-05-13T10:22:45Z</time>
      </trkpt>
      <trkpt lat="43.31612" lon="-0.45195">
        <ele>157.312866</ele>
        <time>2013-05-13T10:22:51Z</time>
      </trkpt>
      <trkpt lat="43.31708" lon="-0.45187">
        <ele>156.832153</ele>
        <time>2013-05-13T10:23:08Z</time>
      </trkpt>
      <trkpt lat="43.31789" lon="-0.45223">
        <ele>155.390259</ele>
        <time>2013-05-13T10:23:23Z</time>
      </trkpt>
      <trkpt lat="43.31807" lon="-0.45268">
        <ele>155.870972</ele>
        <time>2013-05-13T10:23:31Z</time>
      </trkpt>
      <trkpt lat="43.3181" lon="-0.45284">
        <ele>154.909546</ele>
        <time>2013-05-13T10:23:33Z</time>
      </trkpt>
      <trkpt lat="43.31815" lon="-0.45301">
        <ele>155.390259</ele>
        <time>2013-05-13T10:23:35Z</time>
      </trkpt>
      <trkpt lat="43.31841" lon="-0.45336">
        <ele>154.909546</ele>
        <time>2013-05-13T10:23:41Z</time>
      </trkpt>
      <trkpt lat="43.31852" lon="-0.45341">
        <ele>155.870972</ele>
        <time>2013-05-13T10:23:43Z</time>
      </trkpt>
      <trkpt lat="43.31897" lon="-0.454">
        <ele>155.870972</ele>
        <time>2013-05-13T10:23:54Z</time>
      </trkpt>
      <trkpt lat="43.319" lon="-0.45406">
        <ele>155.870972</ele>
        <time>2013-05-13T10:23:55Z</time>
      </trkpt>
      <trkpt lat="43.31928" lon="-0.45434">
        <ele>155.390259</ele>
        <time>2013-05-13T10:24:02Z</time>
      </trkpt>
      <trkpt lat="43.32017" lon="-0.45483">
        <ele>154.909546</ele>
        <time>2013-05-13T10:24:19Z</time>
      </trkpt>
      <trkpt lat="43.32111" lon="-0.45536">
        <ele>155.390259</ele>
        <time>2013-05-13T10:24:37Z</time>
      </trkpt>
      <trkpt lat="43.32205" lon="-0.45582">
        <ele>155.390259</ele>
        <time>2013-05-13T10:24:54Z</time>
      </trkpt>
      <trkpt lat="43.32317" lon="-0.45665">
        <ele>154.909546</ele>
        <time>2013-05-13T10:25:15Z</time>
      </trkpt>
      <trkpt lat="43.32428" lon="-0.45737">
        <ele>153.948364</ele>
        <time>2013-05-13T10:25:35Z</time>
      </trkpt>
      <trkpt lat="43.32454" lon="-0.45761">
        <ele>153.467651</ele>
        <time>2013-05-13T10:25:40Z</time>
      </trkpt>
      <trkpt lat="43.3248" lon="-0.45797">
        <ele>152.506348</ele>
        <time>2013-05-13T10:25:46Z</time>
      </trkpt>
      <trkpt lat="43.32587" lon="-0.45911">
        <ele>152.025757</ele>
        <time>2013-05-13T10:26:08Z</time>
      </trkpt>
      <trkpt lat="43.32683" lon="-0.46007">
        <ele>151.544922</ele>
        <time>2013-05-13T10:26:27Z</time>
      </trkpt>
      <trkpt lat="43.32764" lon="-0.46133">
        <ele>152.025757</ele>
        <time>2013-05-13T10:26:46Z</time>
      </trkpt>
      <trkpt lat="43.32809" lon="-0.46212">
        <ele>151.544922</ele>
        <time>2013-05-13T10:26:59Z</time>
      </trkpt>
      <trkpt lat="43.32885" lon="-0.46311">
        <ele>152.025757</ele>
        <time>2013-05-13T10:27:16Z</time>
      </trkpt>
      <trkpt lat="43.3293" lon="-0.46368">
        <ele>152.025757</ele>
        <time>2013-05-13T10:27:26Z</time>
      </trkpt>
      <trkpt lat="43.32987" lon="-0.46424">
        <ele>151.544922</ele>
        <time>2013-05-13T10:27:37Z</time>
      </trkpt>
      <trkpt lat="43.33009" lon="-0.46439">
        <ele>150.103027</ele>
        <time>2013-05-13T10:27:41Z</time>
      </trkpt>
      <trkpt lat="43.33056" lon="-0.46467">
        <ele>150.583618</ele>
        <time>2013-05-13T10:27:49Z</time>
      </trkpt>
      <trkpt lat="43.33073" lon="-0.46492">
        <ele>150.103027</ele>
        <time>2013-05-13T10:27:53Z</time>
      </trkpt>
      <trkpt lat="43.33108" lon="-0.46558">
        <ele>147.699707</ele>
        <time>2013-05-13T10:28:02Z</time>
      </trkpt>
      <trkpt lat="43.33111" lon="-0.46567">
        <ele>147.699707</ele>
        <time>2013-05-13T10:28:03Z</time>
      </trkpt>
      <trkpt lat="43.33115" lon="-0.46584">
        <ele>147.218994</ele>
        <time>2013-05-13T10:28:05Z</time>
      </trkpt>
      <trkpt lat="43.33105" lon="-0.46623">
        <ele>149.622314</ele>
        <time>2013-05-13T10:28:11Z</time>
      </trkpt>
      <trkpt lat="43.33095" lon="-0.46632">
        <ele>148.661011</ele>
        <time>2013-05-13T10:28:13Z</time>
      </trkpt>
      <trkpt lat="43.33069" lon="-0.46665">
        <ele>148.661011</ele>
        <time>2013-05-13T10:28:19Z</time>
      </trkpt>
      <trkpt lat="43.33062" lon="-0.46689">
        <ele>148.661011</ele>
        <time>2013-05-13T10:28:22Z</time>
      </trkpt>
      <trkpt lat="43.33045" lon="-0.46715">
        <ele>147.699707</ele>
        <time>2013-05-13T10:28:26Z</time>
      </trkpt>
      <trkpt lat="43.33024" lon="-0.4673">
        <ele>148.18042</ele>
        <time>2013-05-13T10:28:30Z</time>
      </trkpt>
      <trkpt lat="43.3298" lon="-0.46776">
        <ele>148.18042</ele>
        <time>2013-05-13T10:28:40Z</time>
      </trkpt>
      <trkpt lat="43.32912" lon="-0.46857">
        <ele>148.18042</ele>
        <time>2013-05-13T10:28:55Z</time>
      </trkpt>
      <trkpt lat="43.32892" lon="-0.46876">
        <ele>148.18042</ele>
        <time>2013-05-13T10:28:59Z</time>
      </trkpt>
      <trkpt lat="43.32836" lon="-0.46976">
        <ele>148.661011</ele>
        <time>2013-05-13T10:29:14Z</time>
      </trkpt>
      <trkpt lat="43.32812" lon="-0.47046">
        <ele>147.699707</ele>
        <time>2013-05-13T10:29:23Z</time>
      </trkpt>
      <trkpt lat="43.32817" lon="-0.47147">
        <ele>148.18042</ele>
        <time>2013-05-13T10:29:35Z</time>
      </trkpt>
      <trkpt lat="43.32814" lon="-0.47245">
        <ele>147.699707</ele>
        <time>2013-05-13T10:29:46Z</time>
      </trkpt>
      <trkpt lat="43.32833" lon="-0.47387">
        <ele>146.738403</ele>
        <time>2013-05-13T10:30:02Z</time>
      </trkpt>
      <trkpt lat="43.32854" lon="-0.47476">
        <ele>147.218994</ele>
        <time>2013-05-13T10:30:13Z</time>
      </trkpt>
      <trkpt lat="43.32862" lon="-0.47488">
        <ele>146.738403</ele>
        <time>2013-05-13T10:30:15Z</time>
      </trkpt>
      <trkpt lat="43.32858" lon="-0.47523">
        <ele>146.738403</ele>
        <time>2013-05-13T10:30:21Z</time>
      </trkpt>
      <trkpt lat="43.32844" lon="-0.47532">
        <ele>146.738403</ele>
        <time>2013-05-13T10:30:24Z</time>
      </trkpt>
      <trkpt lat="43.32835" lon="-0.47576">
        <ele>146.257813</ele>
        <time>2013-05-13T10:30:31Z</time>
      </trkpt>
      <trkpt lat="43.32837" lon="-0.47582">
        <ele>146.738403</ele>
        <time>2013-05-13T10:30:32Z</time>
      </trkpt>
      <trkpt lat="43.32889" lon="-0.47717">
        <ele>146.257813</ele>
        <time>2013-05-13T10:30:51Z</time>
      </trkpt>
      <trkpt lat="43.32938" lon="-0.4784">
        <ele>145.7771</ele>
        <time>2013-05-13T10:31:08Z</time>
      </trkpt>
      <trkpt lat="43.32985" lon="-0.47941">
        <ele>145.7771</ele>
        <time>2013-05-13T10:31:22Z</time>
      </trkpt>
      <trkpt lat="43.33018" lon="-0.48051">
        <ele>145.7771</ele>
        <time>2013-05-13T10:31:36Z</time>
      </trkpt>
      <trkpt lat="43.33033" lon="-0.48078">
        <ele>145.7771</ele>
        <time>2013-05-13T10:31:40Z</time>
      </trkpt>
      <trkpt lat="43.33044" lon="-0.48107">
        <ele>145.7771</ele>
        <time>2013-05-13T10:31:44Z</time>
      </trkpt>
      <trkpt lat="43.33059" lon="-0.48178">
        <ele>145.7771</ele>
        <time>2013-05-13T10:31:53Z</time>
      </trkpt>
      <trkpt lat="43.33057" lon="-0.48218">
        <ele>145.7771</ele>
        <time>2013-05-13T10:31:58Z</time>
      </trkpt>
      <trkpt lat="43.3305" lon="-0.48249">
        <ele>146.257813</ele>
        <time>2013-05-13T10:32:03Z</time>
      </trkpt>
      <trkpt lat="43.33052" lon="-0.48273">
        <ele>145.7771</ele>
        <time>2013-05-13T10:32:07Z</time>
      </trkpt>
      <trkpt lat="43.33058" lon="-0.48292">
        <ele>145.7771</ele>
        <time>2013-05-13T10:32:10Z</time>
      </trkpt>
      <trkpt lat="43.3308" lon="-0.48338">
        <ele>145.296387</ele>
        <time>2013-05-13T10:32:17Z</time>
      </trkpt>
      <trkpt lat="43.331" lon="-0.48376">
        <ele>145.296387</ele>
        <time>2013-05-13T10:32:23Z</time>
      </trkpt>
      <trkpt lat="43.33115" lon="-0.48408">
        <ele>144.815796</ele>
        <time>2013-05-13T10:32:28Z</time>
      </trkpt>
      <trkpt lat="43.33142" lon="-0.48425">
        <ele>145.296387</ele>
        <time>2013-05-13T10:32:33Z</time>
      </trkpt>
      <trkpt lat="43.3316" lon="-0.48429">
        <ele>145.7771</ele>
        <time>2013-05-13T10:32:36Z</time>
      </trkpt>
      <trkpt lat="43.33188" lon="-0.48451">
        <ele>143.85437</ele>
        <time>2013-05-13T10:32:41Z</time>
      </trkpt>
      <trkpt lat="43.33197" lon="-0.48482">
        <ele>143.85437</ele>
        <time>2013-05-13T10:32:45Z</time>
      </trkpt>
      <trkpt lat="43.33195" lon="-0.48524">
        <ele>143.85437</ele>
        <time>2013-05-13T10:32:50Z</time>
      </trkpt>
      <trkpt lat="43.33189" lon="-0.48548">
        <ele>143.85437</ele>
        <time>2013-05-13T10:32:53Z</time>
      </trkpt>
      <trkpt lat="43.33189" lon="-0.48582">
        <ele>144.335205</ele>
        <time>2013-05-13T10:32:57Z</time>
      </trkpt>
      <trkpt lat="43.33204" lon="-0.48622">
        <ele>143.85437</ele>
        <time>2013-05-13T10:33:02Z</time>
      </trkpt>
      <trkpt lat="43.33221" lon="-0.48649">
        <ele>143.373657</ele>
        <time>2013-05-13T10:33:06Z</time>
      </trkpt>
      <trkpt lat="43.33294" lon="-0.48743">
        <ele>143.373657</ele>
        <time>2013-05-13T10:33:22Z</time>
      </trkpt>
      <trkpt lat="43.33307" lon="-0.48781">
        <ele>143.85437</ele>
        <time>2013-05-13T10:33:27Z</time>
      </trkpt>
      <trkpt lat="43.33321" lon="-0.48806">
        <ele>143.85437</ele>
        <time>2013-05-13T10:33:31Z</time>
      </trkpt>
      <trkpt lat="43.3336" lon="-0.48848">
        <ele>143.85437</ele>
        <time>2013-05-13T10:33:40Z</time>
      </trkpt>
      <trkpt lat="43.33385" lon="-0.48851">
        <ele>144.335205</ele>
        <time>2013-05-13T10:33:45Z</time>
      </trkpt>
      <trkpt lat="43.33438" lon="-0.48816">
        <ele>143.373657</ele>
        <time>2013-05-13T10:33:55Z</time>
      </trkpt>
      <trkpt lat="43.33454" lon="-0.48834">
        <ele>142.412476</ele>
        <time>2013-05-13T10:34:01Z</time>
      </trkpt>
      <trkpt lat="43.33456" lon="-0.48863">
        <ele>142.893066</ele>
        <time>2013-05-13T10:34:06Z</time>
      </trkpt>
      <trkpt lat="43.33487" lon="-0.48967">
        <ele>142.412476</ele>
        <time>2013-05-13T10:34:23Z</time>
      </trkpt>
      <trkpt lat="43.33498" lon="-0.48994">
        <ele>141.931763</ele>
        <time>2013-05-13T10:34:28Z</time>
      </trkpt>
      <trkpt lat="43.33529" lon="-0.49068">
        <ele>141.931763</ele>
        <time>2013-05-13T10:34:43Z</time>
      </trkpt>
      <trkpt lat="43.33544" lon="-0.49088">
        <ele>141.931763</ele>
        <time>2013-05-13T10:34:48Z</time>
      </trkpt>
      <trkpt lat="43.33574" lon="-0.4914">
        <ele>141.931763</ele>
        <time>2013-05-13T10:34:58Z</time>
      </trkpt>
      <trkpt lat="43.33616" lon="-0.4919">
        <ele>141.45105</ele>
        <time>2013-05-13T10:35:09Z</time>
      </trkpt>
      <trkpt lat="43.33627" lon="-0.49245">
        <ele>140.009155</ele>
        <time>2013-05-13T10:35:17Z</time>
      </trkpt>
      <trkpt lat="43.33628" lon="-0.49252">
        <ele>140.009155</ele>
        <time>2013-05-13T10:35:18Z</time>
      </trkpt>
      <trkpt lat="43.33654" lon="-0.49288">
        <ele>140.489868</ele>
        <time>2013-05-13T10:35:25Z</time>
      </trkpt>
      <trkpt lat="43.3367" lon="-0.49295">
        <ele>140.970459</ele>
        <time>2013-05-13T10:35:28Z</time>
      </trkpt>
      <trkpt lat="43.33693" lon="-0.49318">
        <ele>140.489868</ele>
        <time>2013-05-13T10:35:33Z</time>
      </trkpt>
      <trkpt lat="43.337" lon="-0.49331">
        <ele>140.489868</ele>
        <time>2013-05-13T10:35:35Z</time>
      </trkpt>
      <trkpt lat="43.33723" lon="-0.49426">
        <ele>140.489868</ele>
        <time>2013-05-13T10:35:47Z</time>
      </trkpt>
      <trkpt lat="43.33755" lon="-0.49461">
        <ele>140.009155</ele>
        <time>2013-05-13T10:35:54Z</time>
      </trkpt>
      <trkpt lat="43.3378" lon="-0.49479">
        <ele>140.009155</ele>
        <time>2013-05-13T10:35:59Z</time>
      </trkpt>
      <trkpt lat="43.33792" lon="-0.495">
        <ele>140.009155</ele>
        <time>2013-05-13T10:36:02Z</time>
      </trkpt>
      <trkpt lat="43.33802" lon="-0.49531">
        <ele>139.528442</ele>
        <time>2013-05-13T10:36:06Z</time>
      </trkpt>
      <trkpt lat="43.33818" lon="-0.49565">
        <ele>140.009155</ele>
        <time>2013-05-13T10:36:11Z</time>
      </trkpt>
      <trkpt lat="43.33827" lon="-0.4961">
        <ele>140.489868</ele>
        <time>2013-05-13T10:36:17Z</time>
      </trkpt>
      <trkpt lat="43.33827" lon="-0.49634">
        <ele>140.009155</ele>
        <time>2013-05-13T10:36:20Z</time>
      </trkpt>
      <trkpt lat="43.33845" lon="-0.49698">
        <ele>140.009155</ele>
        <time>2013-05-13T10:36:28Z</time>
      </trkpt>
      <trkpt lat="43.33862" lon="-0.49753">
        <ele>138.567261</ele>
        <time>2013-05-13T10:36:35Z</time>
      </trkpt>
      <trkpt lat="43.33871" lon="-0.49773">
        <ele>140.009155</ele>
        <time>2013-05-13T10:36:38Z</time>
      </trkpt>
      <trkpt lat="43.33864" lon="-0.49804">
        <ele>139.528442</ele>
        <time>2013-05-13T10:36:45Z</time>
      </trkpt>
      <trkpt lat="43.33868" lon="-0.49814">
        <ele>140.009155</ele>
        <time>2013-05-13T10:36:47Z</time>
      </trkpt>
      <trkpt lat="43.33876" lon="-0.49824">
        <ele>139.047852</ele>
        <time>2013-05-13T10:36:49Z</time>
      </trkpt>
      <trkpt lat="43.339" lon="-0.49877">
        <ele>140.489868</ele>
        <time>2013-05-13T10:36:57Z</time>
      </trkpt>
      <trkpt lat="43.33916" lon="-0.49899">
        <ele>141.45105</ele>
        <time>2013-05-13T10:37:01Z</time>
      </trkpt>
      <trkpt lat="43.33953" lon="-0.49955">
        <ele>138.567261</ele>
        <time>2013-05-13T10:37:10Z</time>
      </trkpt>
      <trkpt lat="43.33984" lon="-0.50073">
        <ele>136.644653</ele>
        <time>2013-05-13T10:37:24Z</time>
      </trkpt>
      <trkpt lat="43.34006" lon="-0.50128">
        <ele>136.644653</ele>
        <time>2013-05-13T10:37:31Z</time>
      </trkpt>
      <trkpt lat="43.34051" lon="-0.50179">
        <ele>137.125244</ele>
        <time>2013-05-13T10:37:40Z</time>
      </trkpt>
      <trkpt lat="43.341" lon="-0.50246">
        <ele>138.567261</ele>
        <time>2013-05-13T10:37:52Z</time>
      </trkpt>
      <trkpt lat="43.34158" lon="-0.50313">
        <ele>138.567261</ele>
        <time>2013-05-13T10:38:05Z</time>
      </trkpt>
      <trkpt lat="43.342" lon="-0.50339">
        <ele>137.605835</ele>
        <time>2013-05-13T10:38:13Z</time>
      </trkpt>
      <trkpt lat="43.34218" lon="-0.50356">
        <ele>138.086548</ele>
        <time>2013-05-13T10:38:23Z</time>
      </trkpt>
      <trkpt lat="43.34268" lon="-0.50391">
        <ele>136.644653</ele>
        <time>2013-05-13T10:38:34Z</time>
      </trkpt>
      <trkpt lat="43.34327" lon="-0.50468">
        <ele>137.125244</ele>
        <time>2013-05-13T10:38:48Z</time>
      </trkpt>
      <trkpt lat="43.34336" lon="-0.50479">
        <ele>136.644653</ele>
        <time>2013-05-13T10:38:50Z</time>
      </trkpt>
      <trkpt lat="43.34357" lon="-0.50491">
        <ele>136.644653</ele>
        <time>2013-05-13T10:38:54Z</time>
      </trkpt>
      <trkpt lat="43.34408" lon="-0.50513">
        <ele>136.16394</ele>
        <time>2013-05-13T10:39:03Z</time>
      </trkpt>
      <trkpt lat="43.34426" lon="-0.50535">
        <ele>136.16394</ele>
        <time>2013-05-13T10:39:07Z</time>
      </trkpt>
      <trkpt lat="43.34497" lon="-0.5061">
        <ele>136.644653</ele>
        <time>2013-05-13T10:39:22Z</time>
      </trkpt>
      <trkpt lat="43.34566" lon="-0.50706">
        <ele>136.16394</ele>
        <time>2013-05-13T10:39:37Z</time>
      </trkpt>
      <trkpt lat="43.34595" lon="-0.50741">
        <ele>136.16394</ele>
        <time>2013-05-13T10:39:43Z</time>
      </trkpt>
      <trkpt lat="43.34613" lon="-0.50786">
        <ele>135.202515</ele>
        <time>2013-05-13T10:39:49Z</time>
      </trkpt>
      <trkpt lat="43.34619" lon="-0.50799">
        <ele>135.683105</ele>
        <time>2013-05-13T10:39:51Z</time>
      </trkpt>
      <trkpt lat="43.34656" lon="-0.50847">
        <ele>135.683105</ele>
        <time>2013-05-13T10:39:59Z</time>
      </trkpt>
      <trkpt lat="43.34683" lon="-0.50886">
        <ele>135.683105</ele>
        <time>2013-05-13T10:40:05Z</time>
      </trkpt>
      <trkpt lat="43.34696" lon="-0.50917">
        <ele>135.683105</ele>
        <time>2013-05-13T10:40:09Z</time>
      </trkpt>
      <trkpt lat="43.34711" lon="-0.50943">
        <ele>135.683105</ele>
        <time>2013-05-13T10:40:13Z</time>
      </trkpt>
      <trkpt lat="43.34728" lon="-0.50978">
        <ele>135.683105</ele>
        <time>2013-05-13T10:40:18Z</time>
      </trkpt>
      <trkpt lat="43.34752" lon="-0.51042">
        <ele>135.683105</ele>
        <time>2013-05-13T10:40:27Z</time>
      </trkpt>
      <trkpt lat="43.34735" lon="-0.51093">
        <ele>135.683105</ele>
        <time>2013-05-13T10:40:34Z</time>
      </trkpt>
      <trkpt lat="43.34734" lon="-0.51109">
        <ele>135.683105</ele>
        <time>2013-05-13T10:40:36Z</time>
      </trkpt>
      <trkpt lat="43.34698" lon="-0.51226">
        <ele>135.202515</ele>
        <time>2013-05-13T10:40:51Z</time>
      </trkpt>
      <trkpt lat="43.34696" lon="-0.51234">
        <ele>135.202515</ele>
        <time>2013-05-13T10:40:52Z</time>
      </trkpt>
      <trkpt lat="43.34706" lon="-0.51259">
        <ele>135.202515</ele>
        <time>2013-05-13T10:40:57Z</time>
      </trkpt>
      <trkpt lat="43.34789" lon="-0.51288">
        <ele>135.202515</ele>
        <time>2013-05-13T10:41:11Z</time>
      </trkpt>
      <trkpt lat="43.34834" lon="-0.51303">
        <ele>135.202515</ele>
        <time>2013-05-13T10:41:18Z</time>
      </trkpt>
      <trkpt lat="43.34919" lon="-0.51368">
        <ele>135.683105</ele>
        <time>2013-05-13T10:41:33Z</time>
      </trkpt>
      <trkpt lat="43.34989" lon="-0.51416">
        <ele>135.202515</ele>
        <time>2013-05-13T10:41:46Z</time>
      </trkpt>
      <trkpt lat="43.35028" lon="-0.51413">
        <ele>134.721924</ele>
        <time>2013-05-13T10:41:53Z</time>
      </trkpt>
      <trkpt lat="43.35043" lon="-0.514">
        <ele>134.721924</ele>
        <time>2013-05-13T10:41:56Z</time>
      </trkpt>
      <trkpt lat="43.35069" lon="-0.51415">
        <ele>135.202515</ele>
        <time>2013-05-13T10:42:02Z</time>
      </trkpt>
      <trkpt lat="43.35071" lon="-0.51423">
        <ele>135.202515</ele>
        <time>2013-05-13T10:42:03Z</time>
      </trkpt>
      <trkpt lat="43.35074" lon="-0.51439">
        <ele>134.721924</ele>
        <time>2013-05-13T10:42:05Z</time>
      </trkpt>
      <trkpt lat="43.35091" lon="-0.51473">
        <ele>135.202515</ele>
        <time>2013-05-13T10:42:10Z</time>
      </trkpt>
      <trkpt lat="43.35114" lon="-0.51503">
        <ele>134.721924</ele>
        <time>2013-05-13T10:42:15Z</time>
      </trkpt>
      <trkpt lat="43.35143" lon="-0.51516">
        <ele>134.721924</ele>
        <time>2013-05-13T10:42:20Z</time>
      </trkpt>
      <trkpt lat="43.35193" lon="-0.51512">
        <ele>134.241211</ele>
        <time>2013-05-13T10:42:28Z</time>
      </trkpt>
      <trkpt lat="43.35244" lon="-0.51505">
        <ele>132.799316</ele>
        <time>2013-05-13T10:42:36Z</time>
      </trkpt>
      <trkpt lat="43.35315" lon="-0.51595">
        <ele>132.799316</ele>
        <time>2013-05-13T10:42:52Z</time>
      </trkpt>
      <trkpt lat="43.35319" lon="-0.516">
        <ele>133.279907</ele>
        <time>2013-05-13T10:42:53Z</time>
      </trkpt>
      <trkpt lat="43.3536" lon="-0.51625">
        <ele>133.760498</ele>
        <time>2013-05-13T10:43:01Z</time>
      </trkpt>
      <trkpt lat="43.35433" lon="-0.51681">
        <ele>134.721924</ele>
        <time>2013-05-13T10:43:17Z</time>
      </trkpt>
      <trkpt lat="43.35437" lon="-0.51682">
        <ele>135.202515</ele>
        <time>2013-05-13T10:43:18Z</time>
      </trkpt>
      <trkpt lat="43.35454" lon="-0.51679">
        <ele>135.202515</ele>
        <time>2013-05-13T10:43:22Z</time>
      </trkpt>
      <trkpt lat="43.3554" lon="-0.51668">
        <ele>134.241211</ele>
        <time>2013-05-13T10:43:39Z</time>
      </trkpt>
      <trkpt lat="43.35541" lon="-0.51667">
        <ele>132.318604</ele>
        <time>2013-05-13T10:43:50Z</time>
      </trkpt>
      <trkpt lat="43.35541" lon="-0.51667">
        <ele>134.721924</ele>
        <time>2013-05-13T10:43:52Z</time>
      </trkpt>
      <trkpt lat="43.35541" lon="-0.51667">
        <ele>133.279907</ele>
        <time>2013-05-13T10:44:15Z</time>
      </trkpt>
      <trkpt lat="43.35555" lon="-0.51672">
        <ele>133.760498</ele>
        <time>2013-05-13T10:44:28Z</time>
      </trkpt>
      <trkpt lat="43.35605" lon="-0.51702">
        <ele>133.760498</ele>
        <time>2013-05-13T10:44:43Z</time>
      </trkpt>
      <trkpt lat="43.35609" lon="-0.51706">
        <ele>133.279907</ele>
        <time>2013-05-13T10:44:44Z</time>
      </trkpt>
      <trkpt lat="43.35628" lon="-0.51721">
        <ele>132.799316</ele>
        <time>2013-05-13T10:44:48Z</time>
      </trkpt>
      <trkpt lat="43.35637" lon="-0.51727">
        <ele>132.799316</ele>
        <time>2013-05-13T10:44:50Z</time>
      </trkpt>
      <trkpt lat="43.35649" lon="-0.5174">
        <ele>131.3573</ele>
        <time>2013-05-13T10:44:53Z</time>
      </trkpt>
      <trkpt lat="43.35671" lon="-0.51757">
        <ele>131.837891</ele>
        <time>2013-05-13T10:44:58Z</time>
      </trkpt>
      <trkpt lat="43.35682" lon="-0.51767">
        <ele>131.3573</ele>
        <time>2013-05-13T10:45:01Z</time>
      </trkpt>
      <trkpt lat="43.35698" lon="-0.51781">
        <ele>131.3573</ele>
        <time>2013-05-13T10:45:05Z</time>
      </trkpt>
      <trkpt lat="43.35702" lon="-0.51805">
        <ele>130.395996</ele>
        <time>2013-05-13T10:45:10Z</time>
      </trkpt>
      <trkpt lat="43.35673" lon="-0.51819">
        <ele>130.395996</ele>
        <time>2013-05-13T10:45:23Z</time>
      </trkpt>
      <trkpt lat="43.35622" lon="-0.5184">
        <ele>131.837891</ele>
        <time>2013-05-13T10:45:35Z</time>
      </trkpt>
      <trkpt lat="43.35613" lon="-0.51845">
        <ele>130.395996</ele>
        <time>2013-05-13T10:45:37Z</time>
      </trkpt>
      <trkpt lat="43.356" lon="-0.5186">
        <ele>131.3573</ele>
        <time>2013-05-13T10:45:41Z</time>
      </trkpt>
      <trkpt lat="43.35582" lon="-0.51891">
        <ele>132.318604</ele>
        <time>2013-05-13T10:45:49Z</time>
      </trkpt>
      <trkpt lat="43.35568" lon="-0.51924">
        <ele>131.837891</ele>
        <time>2013-05-13T10:45:57Z</time>
      </trkpt>
      <trkpt lat="43.35622" lon="-0.52033">
        <ele>131.3573</ele>
        <time>2013-05-13T10:46:16Z</time>
      </trkpt>
      <trkpt lat="43.35643" lon="-0.52096">
        <ele>131.3573</ele>
        <time>2013-05-13T10:46:26Z</time>
      </trkpt>
      <trkpt lat="43.35645" lon="-0.52118">
        <ele>130.876709</ele>
        <time>2013-05-13T10:46:30Z</time>
      </trkpt>
      <trkpt lat="43.35641" lon="-0.52164">
        <ele>130.395996</ele>
        <time>2013-05-13T10:46:38Z</time>
      </trkpt>
      <trkpt lat="43.35614" lon="-0.52203">
        <ele>130.395996</ele>
        <time>2013-05-13T10:46:50Z</time>
      </trkpt>
      <trkpt lat="43.35608" lon="-0.52203">
        <ele>129.915283</ele>
        <time>2013-05-13T10:46:59Z</time>
      </trkpt>
      <trkpt lat="43.35608" lon="-0.52204">
        <ele>128.954102</ele>
        <time>2013-05-13T10:47:12Z</time>
      </trkpt>
    </trkseg>
  </trk>
</gpx>